Time;durP1;ratioP1;P1;durP2;ratioP2;P2;SDS_P1;SDS_P2;PMS_P1;PMS_P2;Temp;Humidity;BMP_temperature;BMP_pressure;BME280_temperature;BME280_humidity;BME280_pressure;Samples;Min_cycle;Max_cycle;Signal;HPM_P1;HPM_P2
2022/03/18 00:02:07;;;;;;;17.90;10.47;;;;;;;;;;5051854;28;20193;-61
2022/03/18 00:04:33;;;;;;;22.80;10.90;;;;;;;;;;5052091;28;20186;-62
2022/03/18 00:06:59;;;;;;;17.63;10.93;;;;;;;;;;5051857;28;20210;-62
2022/03/18 00:09:25;;;;;;;20.80;12.17;;;;;;;;;;5053401;28;20183;-62
2022/03/18 00:11:51;;;;;;;18.63;11.43;;;;;;;;;;5053526;28;20238;-61
2022/03/18 00:14:19;;;;;;;19.40;11.93;;;;;;;;;;5053779;28;20208;-62
2022/03/18 00:16:45;;;;;;;17.07;11.87;;;;;;;;;;5052010;28;20755;-61
2022/03/18 00:19:11;;;;;;;18.77;11.57;;;;;;;;;;5053266;28;20417;-61
2022/03/18 00:21:37;;;;;;;12.77;10.57;;;;;;;;;;5053819;28;20288;-62
2022/03/18 00:24:04;;;;;;;17.93;10.83;;;;;;;;;;5053323;28;20178;-61
2022/03/18 00:26:30;;;;;;;16.07;10.90;;;;;;;;;;5053115;28;20457;-62
2022/03/18 00:28:56;;;;;;;15.30;10.43;;;;;;;;;;5053801;28;20205;-61
2022/03/18 00:31:22;;;;;;;17.43;10.97;;;;;;;;;;5053066;28;20666;-62
2022/03/18 00:33:48;;;;;;;19.40;10.90;;;;;;;;;;5053105;28;20212;-61
2022/03/18 00:36:14;;;;;;;15.40;9.03;;;;;;;;;;5053142;28;20190;-61
2022/03/18 00:38:40;;;;;;;18.63;8.30;;;;;;;;;;5053079;28;20170;-62
2022/03/18 00:41:06;;;;;;;17.47;9.87;;;;;;;;;;5053017;28;20189;-61
2022/03/18 00:43:32;;;;;;;18.80;10.10;;;;;;;;;;5053531;28;20627;-61
2022/03/18 00:45:58;;;;;;;17.20;10.87;;;;;;;;;;5053299;28;20210;-60
2022/03/18 00:53:54;;;;;;;15.53;9.93;;;;;;;;;;5053292;28;20174;-62
2022/03/18 00:56:20;;;;;;;18.25;11.38;;;;;;;;;;5051877;28;20453;-61
2022/03/18 00:58:46;;;;;;;18.17;10.90;;;;;;;;;;5051901;28;20377;-61
2022/03/18 01:01:12;;;;;;;18.75;11.82;;;;;;;;;;5050688;28;20850;-62
2022/03/18 01:03:38;;;;;;;16.17;11.05;;;;;;;;;;5051900;28;20435;-61
2022/03/18 01:06:04;;;;;;;20.60;12.07;;;;;;;;;;5051605;28;20377;-61
2022/03/18 01:08:30;;;;;;;18.83;11.20;;;;;;;;;;5050391;28;20841;-61
2022/03/18 01:10:56;;;;;;;17.35;11.48;;;;;;;;;;5051874;28;20403;-62
2022/03/18 01:13:22;;;;;;;21.85;11.38;;;;;;;;;;5050493;28;20388;-61
2022/03/18 01:15:48;;;;;;;34.58;22.63;;;;;;;;;;5054302;28;20385;-61
2022/03/18 01:18:14;;;;;;;18.98;12.30;;;;;;;;;;5055415;28;20381;-62
2022/03/18 01:20:40;;;;;;;19.33;10.03;;;;;;;;;;5055321;28;20235;-62
2022/03/18 01:23:06;;;;;;;19.83;11.17;;;;;;;;;;5056070;28;20639;-62
2022/03/18 01:25:35;;;;;;;15.63;10.27;;;;;;;;;;5055019;28;20533;-62
2022/03/18 01:28:02;;;;;;;19.43;11.40;;;;;;;;;;5056502;28;20166;-61
2022/03/18 01:30:29;;;;;;;17.60;10.07;;;;;;;;;;5056099;28;20197;-61
2022/03/18 01:32:55;;;;;;;18.30;10.40;;;;;;;;;;5055997;28;20579;-60
2022/03/18 01:35:21;;;;;;;13.70;9.63;;;;;;;;;;5056215;28;20179;-60
2022/03/18 01:37:47;;;;;;;15.40;11.55;;;;;;;;;;5054790;28;20389;-60
2022/03/18 01:40:13;;;;;;;17.02;12.00;;;;;;;;;;5053699;28;20384;-60
2022/03/18 01:42:39;;;;;;;15.13;10.63;;;;;;;;;;5055076;28;20384;-61
2022/03/18 01:45:05;;;;;;;16.50;9.50;;;;;;;;;;5055011;28;20385;-61
2022/03/18 01:47:31;;;;;;;13.75;9.40;;;;;;;;;;5054431;28;20810;-61
2022/03/18 01:50:00;;;;;;;13.38;9.13;;;;;;;;;;5053445;28;20392;-61
2022/03/18 01:52:27;;;;;;;12.30;8.95;;;;;;;;;;5054523;28;20431;-61
2022/03/18 01:54:53;;;;;;;14.55;9.75;;;;;;;;;;5054420;28;20754;-61
2022/03/18 01:57:24;;;;;;;16.83;13.27;;;;;;;;;;5054128;28;20427;-61
2022/03/18 01:59:51;;;;;;;19.45;13.95;;;;;;;;;;5054729;28;20381;-61
2022/03/18 02:02:17;;;;;;;19.52;13.75;;;;;;;;;;5054316;28;20722;-62
2022/03/18 02:04:43;;;;;;;19.95;13.25;;;;;;;;;;5053225;28;20397;-61
2022/03/18 02:07:09;;;;;;;19.77;12.43;;;;;;;;;;5054179;28;20404;-61
2022/03/18 02:09:36;;;;;;;18.83;11.77;;;;;;;;;;5054179;28;20414;-61
2022/03/18 02:12:03;;;;;;;16.13;10.67;;;;;;;;;;5054036;28;20393;-61
2022/03/18 02:14:30;;;;;;;13.48;9.75;;;;;;;;;;5052943;28;20397;-62
2022/03/18 02:16:56;;;;;;;15.88;8.75;;;;;;;;;;5054295;28;20424;-61
2022/03/18 02:19:22;;;;;;;15.55;9.15;;;;;;;;;;5054052;28;20869;-61
2022/03/18 02:21:49;;;;;;;13.87;8.70;;;;;;;;;;5053956;28;20389;-61
2022/03/18 02:24:15;;;;;;;14.20;9.18;;;;;;;;;;5054280;28;20390;-61
2022/03/18 02:26:41;;;;;;;30.70;20.77;;;;;;;;;;5053556;28;20386;-61
2022/03/18 02:29:08;;;;;;;30.70;19.85;;;;;;;;;;5053869;28;20385;-61
2022/03/18 02:31:34;;;;;;;24.83;15.52;;;;;;;;;;5053575;28;20393;-63
2022/03/18 02:34:00;;;;;;;22.30;14.18;;;;;;;;;;5054107;28;20385;-61
2022/03/18 02:36:26;;;;;;;14.25;9.95;;;;;;;;;;5053788;28;20389;-61
2022/03/18 02:38:51;;;;;;;19.05;9.52;;;;;;;;;;5053611;28;20381;-62
2022/03/18 02:41:17;;;;;;;14.40;8.97;;;;;;;;;;5053554;28;20381;-61
2022/03/18 02:43:43;;;;;;;16.60;9.07;;;;;;;;;;5052466;28;20446;-61
2022/03/18 02:46:09;;;;;;;17.23;10.02;;;;;;;;;;5053427;28;20397;-62
2022/03/18 02:48:35;;;;;;;19.88;13.70;;;;;;;;;;5054005;28;20382;-61
2022/03/18 02:51:01;;;;;;;18.15;10.80;;;;;;;;;;5054288;28;20405;-61
2022/03/18 02:53:27;;;;;;;14.57;9.48;;;;;;;;;;5054591;28;20746;-62
2022/03/18 02:55:54;;;;;;;16.52;9.30;;;;;;;;;;5054656;28;20376;-61
2022/03/18 02:58:20;;;;;;;14.80;9.10;;;;;;;;;;5053354;28;20385;-61
2022/03/18 03:00:46;;;;;;;16.17;8.82;;;;;;;;;;5053922;28;20389;-61
2022/03/18 03:03:12;;;;;;;13.75;8.45;;;;;;;;;;5056355;28;20393;-61
2022/03/18 03:08:22;;;;;;;13.18;8.63;;;;;;;;;;5053950;28;20454;-61
2022/03/18 03:10:48;;;;;;;12.63;8.75;;;;;;;;;;5053387;28;20956;-62
2022/03/18 03:13:14;;;;;;;15.70;9.10;;;;;;;;;;5053278;28;20377;-61
2022/03/18 03:15:40;;;;;;;13.43;8.68;;;;;;;;;;5051725;28;20375;-62
2022/03/18 03:18:07;;;;;;;16.63;9.32;;;;;;;;;;5053075;28;20465;-61
2022/03/18 03:20:33;;;;;;;14.60;8.90;;;;;;;;;;5051828;28;20382;-61
2022/03/18 03:22:59;;;;;;;20.30;10.83;;;;;;;;;;5052840;28;20472;-61
2022/03/18 03:25:25;;;;;;;18.20;11.15;;;;;;;;;;5051679;28;20382;-61
2022/03/18 03:27:54;;;;;;;18.63;10.93;;;;;;;;;;5053157;28;20378;-61
2022/03/18 03:30:20;;;;;;;17.05;10.52;;;;;;;;;;5052860;28;20430;-61
2022/03/18 03:32:47;;;;;;;24.92;11.18;;;;;;;;;;5056548;28;20401;-62
2022/03/18 03:35:15;;;;;;;19.02;10.50;;;;;;;;;;5058866;28;20389;-62
2022/03/18 03:37:41;;;;;;;19.45;10.80;;;;;;;;;;5058867;28;20413;-62
2022/03/18 03:40:07;;;;;;;16.23;10.20;;;;;;;;;;5055524;28;20377;-61
2022/03/18 03:42:34;;;;;;;16.55;10.52;;;;;;;;;;5052963;28;20381;-62
2022/03/18 03:45:00;;;;;;;20.27;10.57;;;;;;;;;;5051325;28;20895;-62
2022/03/18 03:47:26;;;;;;;17.08;10.77;;;;;;;;;;5052212;28;20777;-61
2022/03/18 03:49:52;;;;;;;18.85;9.98;;;;;;;;;;5052723;28;20861;-61
2022/03/18 03:52:18;;;;;;;16.05;10.95;;;;;;;;;;5052679;28;20401;-61
2022/03/18 03:54:44;;;;;;;18.33;11.07;;;;;;;;;;5052499;28;20431;-62
2022/03/18 03:57:10;;;;;;;19.23;10.98;;;;;;;;;;5052291;28;20381;-61
2022/03/18 03:59:36;;;;;;;17.15;10.98;;;;;;;;;;5051230;28;20888;-62
2022/03/18 04:02:05;;;;;;;16.15;10.52;;;;;;;;;;5051347;28;20393;-62
2022/03/18 04:04:32;;;;;;;23.77;11.30;;;;;;;;;;5052285;28;20382;-61
2022/03/18 04:06:58;;;;;;;19.92;10.27;;;;;;;;;;5051082;28;20386;-61
2022/03/18 04:09:24;;;;;;;17.08;9.77;;;;;;;;;;5051024;28;20382;-61
2022/03/18 04:11:50;;;;;;;16.30;10.15;;;;;;;;;;5051298;28;20869;-61
2022/03/18 04:14:16;;;;;;;15.32;9.63;;;;;;;;;;5051179;28;20785;-61
2022/03/18 04:16:44;;;;;;;19.50;9.60;;;;;;;;;;5052074;28;20377;-61
2022/03/18 04:19:10;;;;;;;17.27;9.38;;;;;;;;;;5052464;28;20968;-61
2022/03/18 04:21:36;;;;;;;17.08;8.90;;;;;;;;;;5052166;28;20381;-61
2022/03/18 04:24:02;;;;;;;15.38;9.13;;;;;;;;;;5051736;28;20754;-61
2022/03/18 04:26:28;;;;;;;16.23;9.07;;;;;;;;;;5052102;28;20381;-61
2022/03/18 04:28:54;;;;;;;15.23;9.80;;;;;;;;;;5052095;28;20872;-62
2022/03/18 04:31:20;;;;;;;16.13;9.18;;;;;;;;;;5052147;28;20409;-61
2022/03/18 04:33:46;;;;;;;14.48;8.68;;;;;;;;;;5052205;28;20857;-61
2022/03/18 04:36:12;;;;;;;15.55;9.40;;;;;;;;;;5050837;28;20432;-61
2022/03/18 04:38:38;;;;;;;19.75;9.60;;;;;;;;;;5052084;28;20464;-61
2022/03/18 04:41:04;;;;;;;14.23;9.32;;;;;;;;;;5050802;28;20896;-61
2022/03/18 04:43:30;;;;;;;14.00;9.43;;;;;;;;;;5052014;28;20377;-61
2022/03/18 04:45:56;;;;;;;14.40;9.75;;;;;;;;;;5051828;28;20768;-61
2022/03/18 04:48:22;;;;;;;12.07;8.80;;;;;;;;;;5050698;28;20825;-61
2022/03/18 04:50:48;;;;;;;16.02;9.30;;;;;;;;;;5054852;28;20749;-61
2022/03/18 04:53:14;;;;;;;20.60;9.63;;;;;;;;;;5054577;28;20749;-61
2022/03/18 04:55:40;;;;;;;17.83;9.68;;;;;;;;;;5054321;28;20853;-61
2022/03/18 04:58:06;;;;;;;15.07;10.00;;;;;;;;;;5055515;28;20845;-61
2022/03/18 05:00:32;;;;;;;16.93;9.13;;;;;;;;;;5055561;28;20377;-61
2022/03/18 05:02:58;;;;;;;17.67;9.48;;;;;;;;;;5056092;28;20373;-61
2022/03/18 05:05:24;;;;;;;20.40;9.80;;;;;;;;;;5055553;28;20853;-61
2022/03/18 05:07:50;;;;;;;21.23;10.05;;;;;;;;;;5055946;28;20409;-62
2022/03/18 05:10:17;;;;;;;15.98;9.75;;;;;;;;;;5056476;28;20435;-62
2022/03/18 05:12:43;;;;;;;15.80;9.73;;;;;;;;;;5057179;28;20408;-61
2022/03/18 05:15:09;;;;;;;20.20;9.50;;;;;;;;;;5061370;28;20389;-63
2022/03/18 05:17:36;;;;;;;19.90;9.35;;;;;;;;;;5058085;28;20374;-62
2022/03/18 05:20:02;;;;;;;14.60;9.52;;;;;;;;;;5059078;28;20390;-61
2022/03/18 05:22:28;;;;;;;16.45;9.20;;;;;;;;;;5058331;28;20412;-61
2022/03/18 05:24:54;;;;;;;14.20;8.88;;;;;;;;;;5055784;28;20413;-61
2022/03/18 05:27:20;;;;;;;14.65;8.90;;;;;;;;;;5055630;28;20431;-62
2022/03/18 05:29:46;;;;;;;21.00;9.25;;;;;;;;;;5055624;28;20409;-61
2022/03/18 05:32:12;;;;;;;18.70;9.27;;;;;;;;;;5055860;28;20408;-62
2022/03/18 05:34:38;;;;;;;15.02;9.68;;;;;;;;;;5055926;28;20382;-63
2022/03/18 05:37:07;;;;;;;17.05;10.23;;;;;;;;;;5054953;28;20770;-62
2022/03/18 05:39:34;;;;;;;17.52;9.23;;;;;;;;;;5053610;28;20377;-62
2022/03/18 05:42:00;;;;;;;16.65;9.70;;;;;;;;;;5053453;28;20482;-62
2022/03/18 05:44:26;;;;;;;16.30;9.57;;;;;;;;;;5055248;28;20472;-62
2022/03/18 05:46:52;;;;;;;20.25;9.25;;;;;;;;;;5053422;28;20404;-61
2022/03/18 05:49:18;;;;;;;18.30;9.70;;;;;;;;;;5054743;28;20927;-61
2022/03/18 05:51:45;;;;;;;20.60;10.95;;;;;;;;;;5054642;28;20404;-61
2022/03/18 05:54:11;;;;;;;20.02;11.00;;;;;;;;;;5053085;28;20484;-61
2022/03/18 05:56:53;;;;;;;17.50;10.43;;;;;;;;;;5054706;28;20845;-61
2022/03/18 05:59:20;;;;;;;16.55;10.27;;;;;;;;;;5054961;28;20385;-61
2022/03/18 06:01:46;;;;;;;17.00;10.02;;;;;;;;;;5052974;28;20431;-62
2022/03/18 06:04:14;;;;;;;16.85;10.20;;;;;;;;;;5053484;28;20813;-62
2022/03/18 06:06:40;;;;;;;17.40;9.55;;;;;;;;;;5053040;28;20373;-62
2022/03/18 06:11:51;;;;;;;15.90;10.27;;;;;;;;;;5054849;28;20455;-62
2022/03/18 06:14:25;;;;;;;19.75;11.02;;;;;;;;;;5053581;28;20406;-62
2022/03/18 06:16:52;;;;;;;19.50;10.53;;;;;;;;;;5054206;28;20369;-62
2022/03/18 06:19:19;;;;;;;16.55;8.95;;;;;;;;;;5054102;28;20369;-62
2022/03/18 06:21:45;;;;;;;16.75;8.45;;;;;;;;;;5054165;28;20382;-62
2022/03/18 06:24:12;;;;;;;15.27;8.52;;;;;;;;;;5054590;28;20378;-62
2022/03/18 06:26:38;;;;;;;16.08;8.63;;;;;;;;;;5054444;28;20856;-62
2022/03/18 06:29:04;;;;;;;15.03;8.50;;;;;;;;;;5054610;28;20402;-62
2022/03/18 06:31:30;;;;;;;17.10;8.03;;;;;;;;;;5054106;28;20493;-62
2022/03/18 06:33:56;;;;;;;14.70;8.63;;;;;;;;;;5054187;28;20392;-62
2022/03/18 06:36:22;;;;;;;16.40;9.60;;;;;;;;;;5054127;28;20377;-62
2022/03/18 06:38:48;;;;;;;19.10;10.52;;;;;;;;;;5053866;28;20423;-62
2022/03/18 06:41:16;;;;;;;18.15;10.90;;;;;;;;;;5053014;28;20377;-62
2022/03/18 06:43:42;;;;;;;19.35;11.15;;;;;;;;;;5053006;28;20388;-62
2022/03/18 06:46:08;;;;;;;20.70;11.55;;;;;;;;;;5052594;28;20401;-62
2022/03/18 06:48:34;;;;;;;15.35;10.23;;;;;;;;;;5053988;28;20392;-62
2022/03/18 06:51:01;;;;;;;16.37;9.00;;;;;;;;;;5052184;28;20472;-62
2022/03/18 06:53:27;;;;;;;15.53;8.77;;;;;;;;;;5052188;28;20394;-62
2022/03/18 06:55:53;;;;;;;15.87;7.33;;;;;;;;;;5053429;28;20377;-62
2022/03/18 06:58:19;;;;;;;10.27;6.63;;;;;;;;;;5053658;28;20384;-62
2022/03/18 07:00:45;;;;;;;11.98;7.63;;;;;;;;;;5052035;28;20464;-62
2022/03/18 07:03:13;;;;;;;18.93;7.73;;;;;;;;;;5053147;28;20411;-63
2022/03/18 07:05:39;;;;;;;14.55;7.95;;;;;;;;;;5051944;28;20385;-62
2022/03/18 07:08:05;;;;;;;13.75;7.93;;;;;;;;;;5053536;28;20501;-62
2022/03/18 07:10:31;;;;;;;16.25;7.68;;;;;;;;;;5053227;28;20378;-62
2022/03/18 07:12:57;;;;;;;21.47;7.33;;;;;;;;;;5053456;28;20248;-62
2022/03/18 07:15:23;;;;;;;17.43;8.00;;;;;;;;;;5054035;28;20198;-61
2022/03/18 07:17:55;;;;;;;15.27;7.20;;;;;;;;;;5052821;28;20190;-62
2022/03/18 07:20:22;;;;;;;14.73;7.50;;;;;;;;;;5054404;28;20151;-62
2022/03/18 07:22:58;;;;;;;16.50;7.77;;;;;;;;;;5078203;22;20186;-63
2022/03/18 07:25:24;;;;;;;18.17;8.00;;;;;;;;;;5035186;28;20190;-65
2022/03/18 07:27:50;;;;;;;26.33;8.13;;;;;;;;;;5016748;28;20184;-66
2022/03/18 07:30:16;;;;;;;21.27;8.23;;;;;;;;;;5034400;28;20206;-66
2022/03/18 07:32:42;;;;;;;24.50;7.37;;;;;;;;;;5016771;28;20218;-65
2022/03/18 07:35:10;;;;;;;27.23;8.40;;;;;;;;;;5034501;28;20524;-65
2022/03/18 07:37:36;;;;;;;21.07;7.37;;;;;;;;;;5016483;28;20175;-65
2022/03/18 07:40:03;;;;;;;23.07;7.20;;;;;;;;;;5034880;28;20643;-65
2022/03/18 07:42:39;;;;;;;23.67;8.20;;;;;;;;;;5017789;28;20183;-65
2022/03/18 07:45:05;;;;;;;27.23;8.03;;;;;;;;;;5016567;28;20671;-66
2022/03/18 07:47:31;;;;;;;19.07;6.90;;;;;;;;;;5016281;28;20244;-66
2022/03/18 07:49:57;;;;;;;15.03;6.37;;;;;;;;;;5016234;28;20236;-65
2022/03/18 07:52:23;;;;;;;14.90;6.97;;;;;;;;;;5033593;28;20683;-65
2022/03/18 07:54:49;;;;;;;17.70;6.77;;;;;;;;;;5033846;28;20280;-65
2022/03/18 07:57:15;;;;;;;17.07;6.60;;;;;;;;;;5033598;28;20175;-65
2022/03/18 07:59:41;;;;;;;19.53;8.23;;;;;;;;;;5033689;28;20341;-66
2022/03/18 08:02:07;;;;;;;12.30;6.60;;;;;;;;;;5033698;28;20194;-65
2022/03/18 08:04:33;;;;;;;17.60;7.90;;;;;;;;;;5033239;28;20191;-65
2022/03/18 08:07:00;;;;;;;14.97;6.80;;;;;;;;;;5033623;28;20183;-65
2022/03/18 08:09:26;;;;;;;14.50;5.90;;;;;;;;;;5015542;28;20183;-65
2022/03/18 08:11:52;;;;;;;19.23;7.68;;;;;;;;;;5014379;28;20476;-66
2022/03/18 08:14:18;;;;;;;19.90;7.03;;;;;;;;;;5014367;28;20508;-65
2022/03/18 08:16:44;;;;;;;16.02;6.85;;;;;;;;;;5032437;28;20391;-65
2022/03/18 08:19:10;;;;;;;17.35;6.38;;;;;;;;;;5032167;28;20391;-65
2022/03/18 08:21:36;;;;;;;13.48;6.10;;;;;;;;;;5014456;28;20759;-65
2022/03/18 08:24:03;;;;;;;15.30;6.35;;;;;;;;;;5033590;28;20421;-65
2022/03/18 08:26:29;;;;;;;11.57;5.90;;;;;;;;;;5036405;28;20964;-65
2022/03/18 08:28:55;;;;;;;10.43;5.87;;;;;;;;;;5019658;28;20278;-65
2022/03/18 08:31:20;;;;;;;13.20;5.03;;;;;;;;;;5019760;28;20206;-66
2022/03/18 08:33:46;;;;;;;13.10;5.27;;;;;;;;;;5038550;28;20634;-65
2022/03/18 08:36:12;;;;;;;11.87;5.33;;;;;;;;;;5041513;28;20715;-65
2022/03/18 08:38:40;;;;;;;10.10;4.17;;;;;;;;;;5042567;28;20172;-65
2022/03/18 08:41:06;;;;;;;10.03;4.33;;;;;;;;;;5041887;28;20612;-65
2022/03/18 08:43:32;;;;;;;10.30;4.53;;;;;;;;;;5039035;28;20203;-65
2022/03/18 08:45:58;;;;;;;12.27;5.17;;;;;;;;;;5037064;28;20202;-65
2022/03/18 08:48:24;;;;;;;12.30;4.43;;;;;;;;;;5019154;28;20650;-65
2022/03/18 08:50:51;;;;;;;12.17;4.20;;;;;;;;;;5036593;28;20265;-65
2022/03/18 08:53:17;;;;;;;11.67;4.93;;;;;;;;;;5036744;28;20671;-65
2022/03/18 08:55:43;;;;;;;9.13;4.33;;;;;;;;;;5036812;28;20186;-64
2022/03/18 08:58:09;;;;;;;10.23;4.43;;;;;;;;;;5018981;28;20730;-65
2022/03/18 09:00:35;;;;;;;12.93;4.97;;;;;;;;;;5036606;28;20179;-65
2022/03/18 09:03:01;;;;;;;12.47;4.43;;;;;;;;;;5036625;28;20760;-65
2022/03/18 09:05:28;;;;;;;11.97;4.50;;;;;;;;;;5018788;28;20187;-65
2022/03/18 09:07:54;;;;;;;11.30;5.20;;;;;;;;;;5036456;28;20262;-65
2022/03/18 09:10:20;;;;;;;9.10;4.70;;;;;;;;;;5036633;28;20199;-65
2022/03/18 09:12:47;;;;;;;9.90;4.13;;;;;;;;;;5036539;28;20569;-63
2022/03/18 09:15:13;;;;;;;9.07;4.53;;;;;;;;;;5018792;28;20666;-65
2022/03/18 09:17:40;;;;;;;11.97;4.20;;;;;;;;;;5018803;28;20182;-65
2022/03/18 09:20:06;;;;;;;10.17;4.33;;;;;;;;;;5019562;28;20265;-65
2022/03/18 09:22:32;;;;;;;14.03;4.43;;;;;;;;;;5036461;28;20552;-65
2022/03/18 09:24:59;;;;;;;13.03;5.00;;;;;;;;;;5018927;28;20219;-65
2022/03/18 09:27:24;;;;;;;12.57;4.60;;;;;;;;;;5036660;28;20206;-65
2022/03/18 09:29:50;;;;;;;10.17;4.00;;;;;;;;;;5018752;28;20655;-65
2022/03/18 09:32:16;;;;;;;8.07;4.10;;;;;;;;;;5018514;28;20203;-65
2022/03/18 09:34:43;;;;;;;6.90;3.40;;;;;;;;;;5018153;28;20245;-65
2022/03/18 09:37:09;;;;;;;9.30;3.63;;;;;;;;;;5035773;28;20171;-65
2022/03/18 09:39:35;;;;;;;8.97;3.73;;;;;;;;;;5036567;28;20171;-65
2022/03/18 09:42:01;;;;;;;9.50;3.80;;;;;;;;;;5018641;28;20663;-65
2022/03/18 09:44:34;;;;;;;5.97;2.93;;;;;;;;;;5023216;28;20203;-66
2022/03/18 09:47:01;;;;;;;6.97;3.20;;;;;;;;;;5025179;28;20168;-66
2022/03/18 09:49:28;;;;;;;9.40;3.40;;;;;;;;;;5043688;28;20197;-65
2022/03/18 09:51:54;;;;;;;22.30;3.90;;;;;;;;;;5042503;28;20207;-66
2022/03/18 09:54:20;;;;;;;8.60;3.50;;;;;;;;;;5038168;28;20202;-65
2022/03/18 09:56:47;;;;;;;8.03;3.47;;;;;;;;;;5018349;28;20183;-65
2022/03/18 09:59:13;;;;;;;3.97;2.83;;;;;;;;;;5036392;28;20175;-65
2022/03/18 10:01:40;;;;;;;6.17;2.70;;;;;;;;;;5037229;28;20215;-65
2022/03/18 10:04:07;;;;;;;5.07;2.50;;;;;;;;;;5036543;28;20201;-65
2022/03/18 10:06:34;;;;;;;6.57;2.90;;;;;;;;;;5036959;28;20183;-65
2022/03/18 10:09:00;;;;;;;5.83;3.20;;;;;;;;;;5037031;28;20640;-65
2022/03/18 10:11:27;;;;;;;6.80;3.60;;;;;;;;;;5037164;28;20252;-65
2022/03/18 10:14:01;;;;;;;8.33;3.07;;;;;;;;;;5018956;28;20195;-65
2022/03/18 10:16:36;;;;;;;6.33;3.13;;;;;;;;;;5036979;28;20172;-65
2022/03/18 10:19:02;;;;;;;5.93;3.10;;;;;;;;;;5036631;28;20242;-65
2022/03/18 10:21:29;;;;;;;7.10;2.87;;;;;;;;;;5019383;28;20189;-65
2022/03/18 10:24:08;;;;;;;6.97;3.27;;;;;;;;;;5036761;28;20289;-65
2022/03/18 10:26:35;;;;;;;6.33;3.23;;;;;;;;;;5036245;28;20175;-65
2022/03/18 10:29:01;;;;;;;6.07;2.67;;;;;;;;;;5018295;28;20670;-65
2022/03/18 10:31:27;;;;;;;4.00;2.73;;;;;;;;;;5018715;28;20207;-65
2022/03/18 10:37:04;;;;;;;8.97;2.70;;;;;;;;;;5036461;28;20275;-63
2022/03/18 10:39:36;;;;;;;4.63;2.60;;;;;;;;;;5036664;28;20243;-65
2022/03/18 10:42:09;;;;;;;8.63;2.83;;;;;;;;;;5036022;28;20205;-65
2022/03/18 10:44:54;;;;;;;8.37;2.90;;;;;;;;;;5018085;28;20207;-65
2022/03/18 10:47:37;;;;;;;5.87;2.73;;;;;;;;;;5035846;28;20253;-64
2022/03/18 10:50:13;;;;;;;7.57;3.03;;;;;;;;;;5017751;28;20179;-65
2022/03/18 10:52:41;;;;;;;4.97;2.93;;;;;;;;;;5018045;28;20206;-65
2022/03/18 10:55:19;;;;;;;7.83;3.03;;;;;;;;;;5034983;28;20175;-65
2022/03/18 10:57:52;;;;;;;4.30;2.93;;;;;;;;;;5017257;28;20361;-65
2022/03/18 11:00:18;;;;;;;8.97;2.90;;;;;;;;;;5035431;28;20603;-65
2022/03/18 11:02:46;;;;;;;4.07;2.67;;;;;;;;;;5035105;28;20182;-65
2022/03/18 11:05:13;;;;;;;6.70;3.10;;;;;;;;;;5035189;28;20555;-66
2022/03/18 11:07:41;;;;;;;8.07;3.57;;;;;;;;;;5035840;28;20187;-65
2022/03/18 11:12:55;;;;;;;9.77;3.47;;;;;;;;;;5034836;28;20257;-65
2022/03/18 11:15:22;;;;;;;7.13;3.37;;;;;;;;;;5017369;28;20179;-65
2022/03/18 11:17:48;;;;;;;8.00;3.07;;;;;;;;;;5016916;28;20183;-65
2022/03/18 11:20:16;;;;;;;7.90;3.50;;;;;;;;;;5016687;28;20179;-65
2022/03/18 11:22:43;;;;;;;7.53;3.23;;;;;;;;;;5034489;28;20207;-65
2022/03/18 11:25:10;;;;;;;9.20;3.97;;;;;;;;;;5034630;28;20215;-65
2022/03/18 11:27:41;;;;;;;5.27;3.03;;;;;;;;;;5034002;28;20606;-65
2022/03/18 11:30:22;;;;;;;3.93;2.33;;;;;;;;;;5034089;28;20592;-65
2022/03/18 11:33:06;;;;;;;7.80;2.90;;;;;;;;;;5016290;28;20211;-64
2022/03/18 11:35:52;;;;;;;5.77;3.00;;;;;;;;;;5034385;28;20190;-65
2022/03/18 11:38:25;;;;;;;6.87;3.30;;;;;;;;;;5017054;28;20201;-65
2022/03/18 11:40:56;;;;;;;7.33;3.37;;;;;;;;;;5033739;28;20177;-66
2022/03/18 11:43:32;;;;;;;7.33;3.30;;;;;;;;;;5016218;28;20249;-65
2022/03/18 11:46:16;;;;;;;9.47;3.90;;;;;;;;;;5033954;28;20202;-65
2022/03/18 11:48:49;;;;;;;8.53;3.63;;;;;;;;;;5034321;28;20183;-66
2022/03/18 11:51:31;;;;;;;5.72;3.25;;;;;;;;;;5032741;28;20484;-64
2022/03/18 11:53:57;;;;;;;;;;;;;;;;;;5033806;28;20017;-65
2022/03/18 11:56:23;;;;;;;;;;;;;;;;;;5033756;28;19912;-65
2022/03/18 11:58:48;;;;;;;;;;;;;;;;;;5033670;28;19981;-65
2022/03/18 12:01:14;;;;;;;;;;;;;;;;;;5016137;28;19936;-65
2022/03/18 12:03:40;;;;;;;;;;;;;;;;;;5033803;28;19928;-65
2022/03/18 12:06:07;;;;;;;;;;;;;;;;;;5016416;28;19912;-65
2022/03/18 12:08:33;;;;;;;;;;;;;;;;;;5016277;28;19905;-65
2022/03/18 12:11:00;;;;;;;5.33;3.03;;;;;;;;;;5033559;28;20181;-65
2022/03/18 12:13:26;;;;;;;;;;;;;;;;;;5016000;28;20029;-64
2022/03/18 12:15:51;;;;;;;;;;;;;;;;;;5016067;28;19916;-65
2022/03/18 12:18:27;;;;;;;6.60;3.00;;;;;;;;;;5014903;28;20416;-65
2022/03/18 12:20:53;;;;;;;6.28;3.20;;;;;;;;;;5014799;28;20747;-65
2022/03/18 12:23:19;;;;;;;9.90;3.20;;;;;;;;;;5014879;28;20392;-65
2022/03/18 12:25:46;;;;;;;6.47;3.15;;;;;;;;;;5032481;28;20470;-65
2022/03/18 12:28:12;;;;;;;6.57;2.97;;;;;;;;;;5014475;28;20380;-65
2022/03/18 12:30:38;;;;;;;6.18;2.90;;;;;;;;;;5032378;28;20382;-65
2022/03/18 12:33:05;;;;;;;5.85;3.05;;;;;;;;;;5032004;28;20394;-65
2022/03/18 12:35:33;;;;;;;5.30;2.90;;;;;;;;;;5031888;28;20410;-65
2022/03/18 12:38:15;;;;;;;5.65;2.95;;;;;;;;;;5032112;28;20402;-63
2022/03/18 12:40:43;;;;;;;5.43;2.85;;;;;;;;;;5032841;28;20445;-63
2022/03/18 12:43:09;;;;;;;5.43;2.70;;;;;;;;;;5032671;28;20406;-63
2022/03/18 12:45:38;;;;;;;6.55;3.10;;;;;;;;;;5031956;28;20391;-65
2022/03/18 12:48:06;;;;;;;5.30;3.03;;;;;;;;;;5031769;28;20429;-66
2022/03/18 12:50:33;;;;;;;6.85;2.80;;;;;;;;;;5031804;28;20822;-66
2022/03/18 12:52:59;;;;;;;4.72;2.60;;;;;;;;;;5014070;28;20403;-65
2022/03/18 12:55:26;;;;;;;6.70;2.60;;;;;;;;;;5014066;28;20442;-63
2022/03/18 12:57:52;;;;;;;5.87;3.13;;;;;;;;;;5031782;28;20415;-65
2022/03/18 13:00:18;;;;;;;5.90;2.97;;;;;;;;;;5031814;28;20390;-66
2022/03/18 13:02:45;;;;;;;7.30;3.25;;;;;;;;;;5031740;28;20386;-65
2022/03/18 13:05:16;;;;;;;6.00;2.90;;;;;;;;;;5031648;28;20428;-66
2022/03/18 13:07:42;;;;;;;5.47;2.60;;;;;;;;;;5013891;28;20399;-65
2022/03/18 13:10:09;;;;;;;4.90;2.30;;;;;;;;;;5031718;28;20386;-64
2022/03/18 13:12:35;;;;;;;4.57;2.20;;;;;;;;;;5017425;28;20481;-64
2022/03/18 13:15:15;;;;;;;4.53;2.45;;;;;;;;;;5035256;28;20383;-65
2022/03/18 13:17:41;;;;;;;5.10;2.70;;;;;;;;;;5035262;28;20374;-65
2022/03/18 13:20:20;;;;;;;3.55;2.67;;;;;;;;;;5035430;28;20383;-64
2022/03/18 13:22:46;;;;;;;3.77;2.40;;;;;;;;;;5036801;28;20949;-64
2022/03/18 13:25:13;;;;;;;4.53;2.42;;;;;;;;;;5037590;28;20533;-64
2022/03/18 13:27:39;;;;;;;5.47;2.40;;;;;;;;;;5037285;28;20872;-64
2022/03/18 13:32:55;;;;;;;4.13;2.70;;;;;;;;;;5059924;22;20616;-62
2022/03/18 13:35:27;;;;;;;6.32;2.83;;;;;;;;;;5034994;28;20716;-63
2022/03/18 13:38:22;;;;;;;4.22;2.58;;;;;;;;;;5016925;28;20376;-62
2022/03/18 13:40:58;;;;;;;4.88;2.55;;;;;;;;;;5017785;28;20806;-62
2022/03/18 13:43:25;;;;;;;5.03;2.58;;;;;;;;;;5034314;28;20868;-63
2022/03/18 13:45:52;;;;;;;4.78;2.75;;;;;;;;;;5034431;28;20856;-63
2022/03/18 13:48:27;;;;;;;4.30;2.28;;;;;;;;;;5034269;28;20743;-64
2022/03/18 13:50:54;;;;;;;4.25;2.30;;;;;;;;;;5034140;28;20386;-63
2022/03/18 13:53:26;;;;;;;5.00;2.60;;;;;;;;;;5035170;28;20767;-63
2022/03/18 13:55:53;;;;;;;5.53;2.43;;;;;;;;;;5034189;28;20641;-63
2022/03/18 13:58:26;;;;;;;4.57;2.33;;;;;;;;;;5034222;28;20382;-63
2022/03/18 14:00:52;;;;;;;4.30;2.38;;;;;;;;;;5034248;28;20371;-63
2022/03/18 14:03:28;;;;;;;5.07;2.53;;;;;;;;;;5033941;28;20377;-63
2022/03/18 14:06:01;;;;;;;4.97;2.30;;;;;;;;;;5035294;28;20242;-62
2022/03/18 14:08:28;;;;;;;3.60;2.20;;;;;;;;;;5035156;28;20233;-63
2022/03/18 14:10:59;;;;;;;2.97;2.53;;;;;;;;;;5035007;28;20175;-63
2022/03/18 14:13:30;;;;;;;3.10;2.30;;;;;;;;;;5017181;28;20638;-63
2022/03/18 14:15:56;;;;;;;3.73;2.57;;;;;;;;;;5035537;28;20159;-61
2022/03/18 14:18:22;;;;;;;6.10;2.50;;;;;;;;;;5017340;28;20266;-61
2022/03/18 14:20:48;;;;;;;6.13;3.27;;;;;;;;;;5035342;28;20225;-62
2022/03/18 14:23:19;;;;;;;4.93;2.70;;;;;;;;;;5034696;28;20207;-61
2022/03/18 14:25:45;;;;;;;3.43;2.30;;;;;;;;;;5034744;28;20242;-62
2022/03/18 14:28:21;;;;;;;3.90;2.50;;;;;;;;;;5016985;28;20274;-62
2022/03/18 14:30:47;;;;;;;3.13;2.37;;;;;;;;;;5034813;28;20169;-62
2022/03/18 14:33:14;;;;;;;3.47;2.30;;;;;;;;;;5034498;28;20226;-62
2022/03/18 14:35:40;;;;;;;7.53;2.60;;;;;;;;;;5035001;28;20175;-62
2022/03/18 14:38:07;;;;;;;5.80;2.90;;;;;;;;;;5034622;28;20171;-62
2022/03/18 14:40:35;;;;;;;5.40;2.50;;;;;;;;;;5035045;28;20186;-62
2022/03/18 14:43:01;;;;;;;3.47;2.50;;;;;;;;;;5016702;28;20206;-61
2022/03/18 14:45:27;;;;;;;3.53;2.10;;;;;;;;;;5034432;28;20203;-62
2022/03/18 14:47:53;;;;;;;5.40;2.53;;;;;;;;;;5034368;28;20179;-62
2022/03/18 14:50:20;;;;;;;2.93;2.30;;;;;;;;;;5034333;28;20187;-62
2022/03/18 14:52:46;;;;;;;5.27;2.97;;;;;;;;;;5034288;28;20214;-62
2022/03/18 14:58:02;;;;;;;3.20;2.20;;;;;;;;;;5034695;28;20178;-62